Redmond, UT

11:33 PM MDT on August 28, 2014 (GMT -0600)
RAWS FILLMORE PORT #2 UT US | Change Station
CLOSE
Current Station
Personal Weather Station
Location: Scipio, UT
Elevation: 6157 ft
Nearby Weather Stations

Elev 6157 ft 39.13 °N, 112.04 °W | Updated 36 minutes ago

Clear
Clear
59 °F
Feels Like 59 °F
N
2
Wind Variable Wind from NE
Gusts 7.0 mph

Today
High -- | Low -- °F
--% Chance of Precip.
Yesterday
High -- | Low -- °F
Precip. -- in
6:52 AM 8:03 PM
Waxing Crescent, 12% visible
Pressure 30.05 in
Visibility 10.0 miles
Clouds Clear
Dew Point 37 °F
Humidity 44%
Rainfall 0.00 in
Snow Depth 0 in , 1 in
UV 0 out of 12
Pollen 8.80 out of 12
Air Quality Not available.
Flu Activity Not available.
METAR KPUC 290453Z AUTO 01007KT 10SM CLR 17/06 A3022 RMK AO2 SLP174 T01670056

More Conditions Fewer Conditions

Pressure 30.05 in
Visibility 10.0 miles
Clouds Clear
Dew Point 37 °F
Humidity 44%
Rainfall 0.00 in
Snow Depth 0 in , 1 in
UV 0 out of 12
Pollen 8.80 out of 12
Air Quality Not available.
Flu Activity Not available.
METAR KPUC 290453Z AUTO 01007KT 10SM CLR 17/06 A3022 RMK AO2 SLP174 T01670056

More Conditions Fewer Conditions

10-Day Weather Forecast

Almanac

Astronomy

Aug. 28, 2014 Rise Set
Actual Time 6:52 AM MDT 8:03 PM MDT
Civil Twilight 6:25 AM MDT 8:31 PM MDT
Nautical Twilight 5:52 AM MDT 9:04 PM MDT
Astronomical Twilight 5:17 AM MDT 9:38 PM MDT
Moon 9:46 AM MDT (8/28) 9:31 PM MDT (8/28)
Length of Visible Light 14h 06m
Length of Day
13h 11m
Tomorrow will be 2m 24s shorter.
Waxing Crescent, 12% of the Moon is Illuminated
Aug 29
Waxing Crescent
Sep 2
First Quarter
Sep 8
Full
Sep 15
Last Quarter
Sep 24
New

Yesterday's Extremes

State Highs State Lows

Community

WunderPhotos

Upload Photos

1,748,196 photos uploaded!

Nearby

Snow Depth

Station Depth Elevation
Pickle Keg 0 in 9600 ft
Gooseberry R.S. 1 in 7920 ft
Black Flat-U.M. Creek 1 in 9400 ft
Box Creek 0 in 9800 ft
Kimberly Mine 0 in 9300 ft

Earthquake Activity

City Distance Mag. Time & Date
No recent earthquake activity has been reported nearby.
Minimum magnitude displayed is 2.5.

Coastal Water Temperatures

Place Temperature
No Stations Reporting

Nearby Weather Stations